Time;durP1;ratioP1;P1;durP2;ratioP2;P2;SDS_P1;SDS_P2;PMS_P1;PMS_P2;Temp;Humidity;BMP_temperature;BMP_pressure;BME280_temperature;BME280_humidity;BME280_pressure;Samples;Min_cycle;Max_cycle;Signal;HPM_P1;HPM_P2
2023/12/29 00:02:01;;;;;;;12.02;8.90;;;;;;;;;;5068136;28;20032;-71
2023/12/29 00:04:27;;;;;;;10.65;8.77;;;;;;;;;;5066870;28;20104;-70
2023/12/29 00:06:52;;;;;;;12.02;9.10;;;;;;;;;;5058902;28;20021;-70
2023/12/29 00:09:19;;;;;;;11.60;8.85;;;;;;;;;;5053086;28;20158;-70
2023/12/29 00:11:46;;;;;;;11.05;8.43;;;;;;;;;;5046978;28;20025;-70
2023/12/29 00:14:11;;;;;;;11.65;8.80;;;;;;;;;;5055753;28;20017;-70
2023/12/29 00:16:37;;;;;;;11.52;8.85;;;;;;;;;;5057522;28;20023;-70
2023/12/29 00:19:03;;;;;;;12.10;8.82;;;;;;;;;;5042989;28;20013;-70
2023/12/29 00:21:28;;;;;;;11.27;8.50;;;;;;;;;;5060392;28;20035;-70
2023/12/29 00:23:55;;;;;;;12.18;9.10;;;;;;;;;;5050492;28;20076;-70
2023/12/29 00:26:21;;;;;;;12.27;8.95;;;;;;;;;;5055375;28;20028;-69
2023/12/29 00:28:46;;;;;;;10.32;8.38;;;;;;;;;;5055672;28;20091;-69
2023/12/29 00:31:17;;;;;;;12.10;8.95;;;;;;;;;;5056820;28;21968;-69
2023/12/29 00:33:43;;;;;;;12.98;9.25;;;;;;;;;;5056104;28;20461;-72
2023/12/29 00:36:13;;;;;;;11.63;9.25;;;;;;;;;;5052315;28;20043;-69
2023/12/29 00:38:39;;;;;;;11.95;9.65;;;;;;;;;;5057710;28;20043;-70
2023/12/29 00:41:04;;;;;;;10.95;9.00;;;;;;;;;;5061490;28;20037;-70
2023/12/29 00:43:30;;;;;;;12.43;8.90;;;;;;;;;;5058562;28;20500;-71
2023/12/29 00:45:55;;;;;;;11.75;8.93;;;;;;;;;;5034437;28;20033;-70
2023/12/29 00:48:21;;;;;;;10.98;9.05;;;;;;;;;;5066021;28;20082;-70
2023/12/29 00:50:46;;;;;;;12.00;9.00;;;;;;;;;;5060078;28;20052;-71
2023/12/29 00:53:11;;;;;;;10.80;8.90;;;;;;;;;;5054398;28;20491;-70
2023/12/29 00:55:37;;;;;;;10.23;8.70;;;;;;;;;;5047727;28;20035;-70
2023/12/29 00:58:02;;;;;;;11.07;9.32;;;;;;;;;;5052047;28;20116;-69
2023/12/29 01:00:27;;;;;;;13.23;9.10;;;;;;;;;;5061237;28;20053;-70
2023/12/29 01:02:53;;;;;;;11.32;9.05;;;;;;;;;;5053439;28;20071;-70
2023/12/29 01:05:18;;;;;;;11.27;8.98;;;;;;;;;;5042717;28;20053;-75
2023/12/29 01:07:43;;;;;;;10.85;8.73;;;;;;;;;;5064587;28;20047;-71
2023/12/29 01:10:09;;;;;;;12.02;8.90;;;;;;;;;;5060650;28;20024;-70
2023/12/29 01:12:34;;;;;;;12.10;8.90;;;;;;;;;;5055857;28;20041;-70
2023/12/29 01:14:59;;;;;;;11.55;8.77;;;;;;;;;;5043776;28;20401;-70
2023/12/29 01:20:09;;;;;;;10.63;8.60;;;;;;;;;;5061675;28;20059;-67
2023/12/29 01:22:34;;;;;;;12.10;9.18;;;;;;;;;;5062878;28;20571;-69
2023/12/29 01:25:00;;;;;;;10.85;9.10;;;;;;;;;;5045217;28;20034;-70
2023/12/29 01:27:25;;;;;;;10.38;8.45;;;;;;;;;;5054053;28;20029;-69
2023/12/29 01:29:52;;;;;;;11.02;8.88;;;;;;;;;;5046623;28;20033;-68
2023/12/29 01:32:17;;;;;;;11.20;9.35;;;;;;;;;;5052837;28;20037;-69
2023/12/29 01:34:43;;;;;;;10.45;9.02;;;;;;;;;;5047713;28;20527;-69
2023/12/29 01:37:08;;;;;;;11.38;9.02;;;;;;;;;;5048042;28;20045;-69
2023/12/29 01:39:34;;;;;;;12.70;9.20;;;;;;;;;;5053620;28;20556;-69
2023/12/29 01:42:00;;;;;;;12.23;9.27;;;;;;;;;;5061937;28;20025;-69
2023/12/29 01:44:25;;;;;;;11.55;8.60;;;;;;;;;;5040116;28;20065;-69
2023/12/29 01:46:54;;;;;;;12.30;8.65;;;;;;;;;;5058306;28;20453;-69
2023/12/29 01:49:20;;;;;;;11.40;9.20;;;;;;;;;;5046970;28;20140;-70
2023/12/29 01:51:47;;;;;;;12.20;9.15;;;;;;;;;;5054583;28;20049;-70
2023/12/29 01:54:12;;;;;;;11.13;8.80;;;;;;;;;;5051648;28;20041;-70
2023/12/29 01:56:37;;;;;;;10.57;9.00;;;;;;;;;;5049736;28;20040;-69
2023/12/29 01:59:03;;;;;;;11.95;9.02;;;;;;;;;;5047843;28;20025;-68
2023/12/29 02:01:29;;;;;;;11.73;9.45;;;;;;;;;;5063389;28;20044;-69
2023/12/29 02:03:54;;;;;;;10.70;8.75;;;;;;;;;;5056016;28;20059;-69
2023/12/29 02:06:19;;;;;;;10.80;9.15;;;;;;;;;;5051734;28;20094;-67
2023/12/29 02:08:45;;;;;;;11.88;8.90;;;;;;;;;;5064871;28;20032;-69
2023/12/29 02:11:10;;;;;;;11.30;9.00;;;;;;;;;;5041878;28;20595;-70
2023/12/29 02:13:35;;;;;;;11.57;8.75;;;;;;;;;;5041042;28;20042;-70
2023/12/29 02:16:16;;;;;;;10.95;8.77;;;;;;;;;;5050755;28;20508;-70
2023/12/29 02:18:41;;;;;;;10.38;8.35;;;;;;;;;;5060940;28;20116;-70
2023/12/29 02:21:06;;;;;;;11.45;8.48;;;;;;;;;;5050891;28;20499;-70
2023/12/29 02:23:32;;;;;;;9.90;8.55;;;;;;;;;;5047668;28;20120;-70
2023/12/29 02:25:58;;;;;;;12.13;9.57;;;;;;;;;;5054104;28;20082;-70
2023/12/29 02:28:24;;;;;;;10.82;8.73;;;;;;;;;;5054798;28;20045;-71
2023/12/29 02:31:00;;;;;;;10.50;8.55;;;;;;;;;;5053458;28;20480;-70
2023/12/29 02:33:25;;;;;;;13.23;9.70;;;;;;;;;;5060144;28;20086;-70
2023/12/29 02:35:51;;;;;;;12.15;9.25;;;;;;;;;;5049219;28;20033;-70
2023/12/29 02:38:17;;;;;;;11.13;8.90;;;;;;;;;;5041796;28;20143;-68
2023/12/29 02:40:42;;;;;;;11.68;9.38;;;;;;;;;;5055854;28;20040;-70
2023/12/29 02:43:08;;;;;;;12.30;8.77;;;;;;;;;;5062471;28;20028;-70
2023/12/29 02:45:33;;;;;;;11.65;8.80;;;;;;;;;;5038259;28;20044;-70
2023/12/29 02:47:59;;;;;;;12.43;9.05;;;;;;;;;;5054493;28;20021;-70
2023/12/29 02:50:24;;;;;;;11.45;8.98;;;;;;;;;;5058121;28;20515;-70
2023/12/29 02:52:49;;;;;;;11.30;8.93;;;;;;;;;;5061587;28;20044;-70
2023/12/29 02:55:14;;;;;;;12.18;9.45;;;;;;;;;;5048983;28;20156;-70
2023/12/29 02:57:40;;;;;;;11.40;9.27;;;;;;;;;;5052110;28;20033;-70
2023/12/29 03:00:05;;;;;;;12.07;9.45;;;;;;;;;;5058974;28;20047;-70
2023/12/29 03:02:31;;;;;;;11.23;9.25;;;;;;;;;;5057079;28;20040;-70
2023/12/29 03:04:56;;;;;;;12.10;9.18;;;;;;;;;;5056694;28;20029;-70
2023/12/29 03:07:21;;;;;;;12.38;9.10;;;;;;;;;;5034385;28;20041;-70
2023/12/29 03:09:47;;;;;;;11.55;9.60;;;;;;;;;;5063212;28;20423;-70
2023/12/29 03:12:12;;;;;;;12.43;9.18;;;;;;;;;;5057927;28;20700;-70
2023/12/29 03:14:38;;;;;;;12.20;9.00;;;;;;;;;;5055307;28;20041;-70
2023/12/29 03:17:03;;;;;;;11.25;9.40;;;;;;;;;;5050928;28;20488;-70
2023/12/29 03:19:29;;;;;;;13.57;10.13;;;;;;;;;;5063178;28;20123;-70
2023/12/29 03:21:54;;;;;;;11.93;9.15;;;;;;;;;;5053495;28;20090;-70
2023/12/29 03:24:19;;;;;;;10.85;8.98;;;;;;;;;;5053403;28;20036;-70
2023/12/29 03:26:45;;;;;;;12.27;9.05;;;;;;;;;;5033400;28;20210;-69
2023/12/29 03:29:10;;;;;;;12.50;9.98;;;;;;;;;;5042271;28;20029;-70
2023/12/29 03:31:36;;;;;;;11.85;9.10;;;;;;;;;;5053573;28;20056;-70
2023/12/29 03:34:01;;;;;;;13.65;9.75;;;;;;;;;;5054182;28;20033;-69
2023/12/29 03:36:26;;;;;;;11.52;9.07;;;;;;;;;;5036465;28;20622;-71
2023/12/29 03:38:52;;;;;;;11.95;9.55;;;;;;;;;;5052320;28;20487;-71
2023/12/29 03:41:18;;;;;;;12.57;9.88;;;;;;;;;;5070310;28;20436;-71
2023/12/29 03:43:44;;;;;;;11.45;9.20;;;;;;;;;;5050742;28;20123;-69
2023/12/29 03:46:16;;;;;;;12.57;9.65;;;;;;;;;;5051914;28;20097;-70
2023/12/29 03:48:41;;;;;;;12.68;9.88;;;;;;;;;;5059182;28;20039;-69
2023/12/29 03:51:07;;;;;;;12.45;9.93;;;;;;;;;;5055386;28;20045;-69
2023/12/29 03:53:32;;;;;;;14.75;10.27;;;;;;;;;;5056314;28;20037;-69
2023/12/29 03:55:57;;;;;;;11.73;9.77;;;;;;;;;;5036101;28;20039;-70
2023/12/29 03:58:23;;;;;;;11.40;9.68;;;;;;;;;;5058132;28;20102;-70
2023/12/29 04:00:48;;;;;;;13.10;10.43;;;;;;;;;;5053434;28;20144;-70
2023/12/29 04:03:13;;;;;;;12.50;10.10;;;;;;;;;;5051478;28;20041;-70
2023/12/29 04:05:39;;;;;;;12.75;10.23;;;;;;;;;;5051257;28;20504;-70
2023/12/29 04:08:04;;;;;;;12.30;9.73;;;;;;;;;;5046626;28;20052;-70
2023/12/29 04:10:29;;;;;;;12.73;10.07;;;;;;;;;;5061141;28;20116;-70
2023/12/29 04:12:55;;;;;;;12.38;9.88;;;;;;;;;;5048916;28;20665;-70
2023/12/29 04:15:20;;;;;;;13.48;9.85;;;;;;;;;;5051110;28;20468;-69
2023/12/29 04:17:45;;;;;;;11.77;9.73;;;;;;;;;;5052726;28;20103;-69
2023/12/29 04:20:11;;;;;;;13.73;10.43;;;;;;;;;;5050670;28;20035;-69
2023/12/29 04:22:36;;;;;;;11.45;9.38;;;;;;;;;;5056784;28;20032;-70
2023/12/29 04:25:02;;;;;;;13.45;10.60;;;;;;;;;;5051990;28;20060;-69
2023/12/29 04:27:27;;;;;;;12.63;10.50;;;;;;;;;;5042668;28;20413;-70
2023/12/29 04:29:52;;;;;;;13.80;10.77;;;;;;;;;;5065325;28;20198;-69
2023/12/29 04:32:17;;;;;;;13.48;10.68;;;;;;;;;;5054859;28;20047;-69
2023/12/29 04:34:43;;;;;;;13.35;10.52;;;;;;;;;;5054215;28;20143;-69
2023/12/29 04:37:08;;;;;;;13.25;10.57;;;;;;;;;;5055497;28;20040;-70
2023/12/29 04:39:33;;;;;;;14.23;10.80;;;;;;;;;;5048124;28;20033;-70
2023/12/29 04:41:59;;;;;;;13.88;10.13;;;;;;;;;;5042319;28;20094;-70
2023/12/29 04:44:24;;;;;;;13.45;10.20;;;;;;;;;;5054430;28;20132;-70
2023/12/29 04:46:49;;;;;;;13.48;9.98;;;;;;;;;;5057592;28;20392;-70
2023/12/29 04:49:15;;;;;;;13.27;10.75;;;;;;;;;;5062503;28;20040;-71
2023/12/29 04:51:40;;;;;;;14.40;10.57;;;;;;;;;;5054223;28;20037;-71
2023/12/29 04:54:05;;;;;;;12.75;10.00;;;;;;;;;;5045690;28;20060;-71
2023/12/29 04:56:30;;;;;;;14.25;11.05;;;;;;;;;;5039847;28;20071;-70
2023/12/29 04:58:56;;;;;;;12.93;10.77;;;;;;;;;;5059593;28;20040;-71
2023/12/29 05:01:21;;;;;;;14.38;11.38;;;;;;;;;;5058372;28;20041;-70
2023/12/29 05:03:47;;;;;;;13.90;11.18;;;;;;;;;;5050154;28;20037;-71
2023/12/29 05:06:12;;;;;;;13.30;10.85;;;;;;;;;;5053792;28;20047;-70
2023/12/29 05:08:37;;;;;;;14.18;11.43;;;;;;;;;;5054677;28;20521;-70
2023/12/29 05:11:03;;;;;;;13.20;10.63;;;;;;;;;;5061542;28;20116;-70
2023/12/29 05:13:29;;;;;;;12.77;11.25;;;;;;;;;;5049975;28;20153;-70
2023/12/29 05:15:54;;;;;;;13.55;11.25;;;;;;;;;;5047284;28;20499;-70
2023/12/29 05:18:20;;;;;;;13.75;10.98;;;;;;;;;;5048218;28;20043;-70
2023/12/29 05:20:45;;;;;;;14.77;11.85;;;;;;;;;;5053882;28;20041;-70
2023/12/29 05:23:10;;;;;;;14.35;10.63;;;;;;;;;;5044634;28;20534;-70
2023/12/29 05:25:36;;;;;;;14.73;11.15;;;;;;;;;;5051906;28;20099;-70
2023/12/29 05:28:01;;;;;;;13.60;11.10;;;;;;;;;;5049662;28;20037;-70
2023/12/29 05:30:27;;;;;;;14.20;11.68;;;;;;;;;;5054302;28;20037;-70
2023/12/29 05:32:53;;;;;;;14.50;12.18;;;;;;;;;;5048465;28;20525;-70
2023/12/29 05:35:18;;;;;;;14.57;11.15;;;;;;;;;;5042930;28;20136;-70
2023/12/29 05:37:44;;;;;;;14.85;11.98;;;;;;;;;;5048470;28;20064;-70
2023/12/29 05:40:09;;;;;;;14.65;11.52;;;;;;;;;;5038087;28;20036;-70
2023/12/29 05:42:34;;;;;;;15.43;12.18;;;;;;;;;;5051194;28;21480;-70
2023/12/29 05:45:00;;;;;;;15.30;11.75;;;;;;;;;;5059589;28;20047;-70
2023/12/29 05:47:25;;;;;;;14.30;11.80;;;;;;;;;;5051804;28;20445;-70
2023/12/29 05:49:50;;;;;;;14.55;11.90;;;;;;;;;;5051533;28;20031;-69
2023/12/29 05:52:16;;;;;;;15.73;11.77;;;;;;;;;;5051486;28;20081;-69
2023/12/29 05:54:41;;;;;;;15.60;12.13;;;;;;;;;;5054722;28;20064;-69
2023/12/29 05:57:06;;;;;;;16.13;12.60;;;;;;;;;;5056901;28;20554;-69
2023/12/29 05:59:32;;;;;;;15.70;12.50;;;;;;;;;;5030379;28;20034;-69
2023/12/29 06:01:57;;;;;;;17.77;11.98;;;;;;;;;;5049982;28;20063;-68
2023/12/29 06:04:22;;;;;;;14.88;12.38;;;;;;;;;;5053741;28;20388;-69
2023/12/29 06:06:48;;;;;;;15.75;12.77;;;;;;;;;;5051235;28;20047;-70
2023/12/29 06:09:13;;;;;;;15.23;12.52;;;;;;;;;;5042027;28;20092;-70
2023/12/29 06:11:39;;;;;;;15.95;12.35;;;;;;;;;;5043911;28;20110;-70
2023/12/29 06:14:04;;;;;;;15.60;12.63;;;;;;;;;;5047281;28;20056;-70
2023/12/29 06:16:30;;;;;;;14.73;12.38;;;;;;;;;;5055115;28;20052;-70
2023/12/29 06:18:55;;;;;;;15.88;12.25;;;;;;;;;;5042636;28;20015;-70
2023/12/29 06:21:21;;;;;;;16.92;12.20;;;;;;;;;;5054730;28;20074;-70
2023/12/29 06:23:46;;;;;;;15.73;12.75;;;;;;;;;;5048552;28;20532;-70
2023/12/29 06:26:18;;;;;;;15.70;12.50;;;;;;;;;;5051621;28;20051;-70
2023/12/29 06:28:44;;;;;;;18.10;13.05;;;;;;;;;;5049190;28;20017;-70
2023/12/29 06:31:09;;;;;;;14.57;12.07;;;;;;;;;;5051919;28;20032;-71
2023/12/29 06:33:34;;;;;;;15.18;11.88;;;;;;;;;;5044975;28;20032;-70
2023/12/29 06:36:00;;;;;;;14.80;12.38;;;;;;;;;;5049859;28;20039;-70
2023/12/29 06:38:25;;;;;;;15.48;12.90;;;;;;;;;;5046945;28;20028;-71
2023/12/29 06:40:50;;;;;;;16.02;12.35;;;;;;;;;;5050858;28;20852;-71
2023/12/29 06:43:16;;;;;;;17.08;13.00;;;;;;;;;;5043336;28;20025;-71
2023/12/29 06:45:41;;;;;;;15.73;12.50;;;;;;;;;;5052513;28;20020;-71
2023/12/29 06:48:07;;;;;;;17.05;13.27;;;;;;;;;;5056357;28;20056;-71
2023/12/29 06:50:32;;;;;;;14.88;12.77;;;;;;;;;;5047944;28;20112;-70
2023/12/29 06:52:57;;;;;;;17.40;13.85;;;;;;;;;;5048090;28;20463;-70
2023/12/29 06:55:24;;;;;;;16.52;13.07;;;;;;;;;;5026620;28;20032;-71
2023/12/29 06:57:49;;;;;;;15.30;12.85;;;;;;;;;;5049666;28;20466;-71
2023/12/29 07:00:15;;;;;;;14.90;12.57;;;;;;;;;;5054262;28;20074;-71
2023/12/29 07:02:40;;;;;;;16.63;13.10;;;;;;;;;;5053942;28;20021;-70
2023/12/29 07:05:06;;;;;;;17.60;12.82;;;;;;;;;;5044212;28;20103;-70
2023/12/29 07:07:31;;;;;;;17.42;13.10;;;;;;;;;;5038081;28;20091;-70
2023/12/29 07:09:56;;;;;;;16.10;13.02;;;;;;;;;;5052241;28;20017;-70
2023/12/29 07:12:22;;;;;;;14.38;12.43;;;;;;;;;;5056318;28;20119;-70
2023/12/29 07:14:47;;;;;;;15.02;12.05;;;;;;;;;;5050243;28;20558;-71
2023/12/29 07:17:13;;;;;;;16.25;12.05;;;;;;;;;;5042976;28;20038;-69
2023/12/29 07:19:38;;;;;;;16.42;13.40;;;;;;;;;;5049247;28;20029;-70
2023/12/29 07:22:05;;;;;;;17.02;13.52;;;;;;;;;;5053466;28;20028;-70
2023/12/29 07:24:30;;;;;;;16.75;13.57;;;;;;;;;;5052001;28;20436;-69
2023/12/29 07:26:55;;;;;;;17.90;13.27;;;;;;;;;;5046480;28;20026;-69
2023/12/29 07:29:21;;;;;;;15.15;12.65;;;;;;;;;;5053904;28;20029;-69
2023/12/29 07:31:46;;;;;;;17.55;13.32;;;;;;;;;;5062911;28;20070;-69
2023/12/29 07:34:11;;;;;;;15.38;13.13;;;;;;;;;;5049268;28;20148;-72
2023/12/29 07:36:40;;;;;;;15.52;13.48;;;;;;;;;;5054571;28;20880;-70
2023/12/29 07:39:05;;;;;;;16.15;14.10;;;;;;;;;;5052530;28;20044;-70
2023/12/29 07:41:31;;;;;;;15.52;13.38;;;;;;;;;;5052087;28;20029;-70
2023/12/29 07:43:56;;;;;;;17.45;13.57;;;;;;;;;;5055848;28;20039;-70
2023/12/29 07:46:26;;;;;;;17.45;13.88;;;;;;;;;;5057193;28;20136;-70
2023/12/29 07:48:52;;;;;;;16.85;14.07;;;;;;;;;;5049606;28;20036;-70
2023/12/29 07:51:17;;;;;;;17.27;13.27;;;;;;;;;;5052597;28;20051;-70
2023/12/29 07:53:43;;;;;;;16.92;13.98;;;;;;;;;;5048932;28;20116;-70
2023/12/29 07:56:09;;;;;;;16.73;13.68;;;;;;;;;;5049910;28;20045;-70
2023/12/29 07:58:35;;;;;;;18.08;13.70;;;;;;;;;;5047430;28;20124;-70
2023/12/29 08:01:00;;;;;;;16.17;13.60;;;;;;;;;;5045012;28;20139;-70
2023/12/29 08:03:26;;;;;;;15.60;12.93;;;;;;;;;;5050157;28;20197;-70
2023/12/29 08:05:51;;;;;;;16.55;13.38;;;;;;;;;;5054660;28;20128;-73
2023/12/29 08:08:17;;;;;;;18.50;14.13;;;;;;;;;;5051358;28;20674;-70
2023/12/29 08:10:42;;;;;;;16.02;13.63;;;;;;;;;;5047919;28;20075;-70
2023/12/29 08:13:09;;;;;;;15.90;13.57;;;;;;;;;;5048477;28;20069;-70
2023/12/29 08:15:34;;;;;;;16.27;13.60;;;;;;;;;;5049902;28;20057;-71
2023/12/29 08:18:00;;;;;;;18.48;14.00;;;;;;;;;;5057788;28;20063;-70
2023/12/29 08:20:25;;;;;;;16.38;13.57;;;;;;;;;;5052860;28;20029;-70
2023/12/29 08:22:50;;;;;;;16.05;13.23;;;;;;;;;;5065895;28;20033;-70
2023/12/29 08:25:17;;;;;;;15.82;13.48;;;;;;;;;;5053180;28;20216;-71
2023/12/29 08:27:42;;;;;;;17.80;13.82;;;;;;;;;;5053444;28;20029;-70
2023/12/29 08:30:08;;;;;;;17.67;14.38;;;;;;;;;;5049939;28;20083;-70
2023/12/29 08:32:33;;;;;;;16.45;13.05;;;;;;;;;;5059216;28;20448;-70
2023/12/29 08:34:58;;;;;;;16.75;13.35;;;;;;;;;;5063964;28;20116;-71
2023/12/29 08:37:25;;;;;;;16.58;12.98;;;;;;;;;;5053149;28;20515;-70
2023/12/29 08:39:50;;;;;;;16.27;13.82;;;;;;;;;;5052184;28;20029;-70
2023/12/29 08:42:16;;;;;;;16.67;14.23;;;;;;;;;;5052784;28;20040;-71
2023/12/29 08:44:41;;;;;;;17.45;13.60;;;;;;;;;;5054724;28;20412;-72
2023/12/29 08:47:08;;;;;;;18.10;13.60;;;;;;;;;;5051191;28;20048;-71
2023/12/29 08:49:37;;;;;;;18.50;14.25;;;;;;;;;;5056638;28;20055;-72
2023/12/29 08:52:02;;;;;;;18.08;14.02;;;;;;;;;;5055215;28;20059;-71
2023/12/29 08:54:27;;;;;;;16.15;13.20;;;;;;;;;;5050823;28;20030;-74
2023/12/29 08:56:53;;;;;;;18.80;14.73;;;;;;;;;;5056376;28;20106;-71
2023/12/29 08:59:18;;;;;;;18.08;14.15;;;;;;;;;;5052877;28;20033;-71
2023/12/29 09:01:43;;;;;;;17.95;14.77;;;;;;;;;;5057487;28;20504;-70
2023/12/29 09:04:09;;;;;;;17.52;14.02;;;;;;;;;;5053017;28;20037;-71
2023/12/29 09:06:34;;;;;;;17.02;13.68;;;;;;;;;;5059221;28;20024;-70
2023/12/29 09:08:59;;;;;;;17.70;13.65;;;;;;;;;;5052965;28;20102;-71
2023/12/29 09:11:26;;;;;;;16.98;13.93;;;;;;;;;;5051614;28;20101;-68
2023/12/29 09:13:51;;;;;;;18.10;14.32;;;;;;;;;;5052207;28;20049;-69
2023/12/29 09:16:17;;;;;;;18.77;14.63;;;;;;;;;;5056823;28;20051;-68
2023/12/29 09:18:42;;;;;;;17.17;13.80;;;;;;;;;;5048085;28;20462;-70
2023/12/29 09:21:07;;;;;;;19.15;14.73;;;;;;;;;;5051111;28;20090;-71
2023/12/29 09:23:33;;;;;;;19.00;14.48;;;;;;;;;;5062509;28;20090;-70
2023/12/29 09:25:59;;;;;;;18.92;14.95;;;;;;;;;;5053439;28;20515;-71
2023/12/29 09:28:24;;;;;;;18.48;14.02;;;;;;;;;;5054986;28;20380;-71
2023/12/29 09:30:49;;;;;;;17.65;14.88;;;;;;;;;;5031764;28;20055;-71
2023/12/29 09:33:15;;;;;;;16.98;13.55;;;;;;;;;;5052181;28;20464;-71
2023/12/29 09:35:40;;;;;;;19.15;14.73;;;;;;;;;;5049265;28;20571;-71
2023/12/29 09:38:05;;;;;;;17.45;14.77;;;;;;;;;;5055565;28;20044;-70
2023/12/29 09:40:31;;;;;;;17.23;14.10;;;;;;;;;;5053713;28;20029;-69
2023/12/29 09:42:56;;;;;;;18.00;14.23;;;;;;;;;;5070152;28;20063;-70
2023/12/29 09:45:23;;;;;;;19.08;14.32;;;;;;;;;;5047980;28;20119;-69
2023/12/29 09:47:48;;;;;;;18.27;14.82;;;;;;;;;;5051367;28;20036;-70
2023/12/29 09:50:13;;;;;;;18.35;14.20;;;;;;;;;;5042097;28;20040;-70
2023/12/29 09:52:39;;;;;;;18.63;14.82;;;;;;;;;;5052946;28;20523;-70
2023/12/29 09:55:05;;;;;;;18.02;14.35;;;;;;;;;;5045455;28;20041;-70
2023/12/29 09:57:30;;;;;;;18.15;13.82;;;;;;;;;;5061646;28;20511;-70
2023/12/29 09:59:55;;;;;;;18.13;14.15;;;;;;;;;;5044770;28;20042;-69
2023/12/29 10:02:24;;;;;;;20.02;15.18;;;;;;;;;;5052150;28;20043;-69
2023/12/29 10:04:49;;;;;;;19.02;14.88;;;;;;;;;;5055660;28;20052;-70
2023/12/29 10:07:23;;;;;;;18.95;14.27;;;;;;;;;;5049138;28;20033;-73
2023/12/29 10:09:51;;;;;;;18.02;14.23;;;;;;;;;;5055989;28;20040;-72
2023/12/29 10:12:16;;;;;;;20.75;15.20;;;;;;;;;;5053016;28;20131;-73
2023/12/29 10:14:45;;;;;;;18.75;14.82;;;;;;;;;;5053548;28;20266;-70
2023/12/29 10:17:12;;;;;;;18.38;14.38;;;;;;;;;;5049760;28;20063;-69
2023/12/29 10:19:41;;;;;;;17.75;14.23;;;;;;;;;;5051898;28;20029;-70
2023/12/29 10:22:08;;;;;;;18.88;15.60;;;;;;;;;;5046825;28;20028;-69
2023/12/29 10:24:33;;;;;;;22.73;17.92;;;;;;;;;;5063613;28;20036;-70
2023/12/29 10:26:59;;;;;;;47.00;34.72;;;;;;;;;;5048109;28;20033;-70
2023/12/29 10:29:25;;;;;;;170.43;107.85;;;;;;;;;;5045330;28;20037;-70
2023/12/29 10:31:50;;;;;;;220.88;129.40;;;;;;;;;;5053306;28;20051;-70
2023/12/29 10:34:19;;;;;;;209.77;120.30;;;;;;;;;;5072749;28;20568;-69
2023/12/29 10:36:49;;;;;;;183.07;114.82;;;;;;;;;;5049184;28;20390;-69
2023/12/29 10:39:15;;;;;;;184.57;108.93;;;;;;;;;;5048507;28;20037;-69
2023/12/29 10:41:40;;;;;;;166.27;103.75;;;;;;;;;;5045953;28;20034;-69
2023/12/29 10:44:08;;;;;;;162.23;101.15;;;;;;;;;;5062428;28;20144;-69
2023/12/29 10:46:33;;;;;;;154.68;97.25;;;;;;;;;;5052658;28;20044;-71
2023/12/29 10:49:11;;;;;;;150.43;94.60;;;;;;;;;;5054383;28;20443;-71
2023/12/29 10:51:37;;;;;;;143.07;91.28;;;;;;;;;;5047849;28;20499;-71
2023/12/29 10:54:02;;;;;;;143.88;91.20;;;;;;;;;;5053616;28;20040;-70
2023/12/29 10:56:28;;;;;;;137.13;87.60;;;;;;;;;;5050754;28;20080;-70
2023/12/29 10:58:57;;;;;;;136.63;86.32;;;;;;;;;;5055916;28;20025;-71
2023/12/29 11:01:23;;;;;;;128.88;82.55;;;;;;;;;;5031870;28;20060;-71
2023/12/29 11:03:57;;;;;;;130.75;83.03;;;;;;;;;;5058111;28;20029;-70
2023/12/29 11:06:22;;;;;;;120.97;79.72;;;;;;;;;;5051201;28;20046;-72
2023/12/29 11:08:48;;;;;;;117.25;75.00;;;;;;;;;;5049459;28;20107;-71
2023/12/29 11:11:13;;;;;;;122.35;78.60;;;;;;;;;;5044731;28;20049;-71
2023/12/29 11:13:38;;;;;;;116.88;74.00;;;;;;;;;;5047437;28;20041;-71
2023/12/29 11:16:04;;;;;;;112.50;73.45;;;;;;;;;;5062305;28;20047;-70
2023/12/29 11:18:29;;;;;;;113.10;71.75;;;;;;;;;;5055697;28;20056;-70
2023/12/29 11:20:54;;;;;;;107.68;71.13;;;;;;;;;;5051006;28;20045;-71
2023/12/29 11:23:20;;;;;;;105.80;68.38;;;;;;;;;;5050332;28;20026;-71
2023/12/29 11:25:46;;;;;;;109.03;69.13;;;;;;;;;;5055500;28;20056;-70
2023/12/29 11:28:12;;;;;;;96.65;63.90;;;;;;;;;;5049138;28;20095;-70
2023/12/29 11:30:38;;;;;;;101.10;64.30;;;;;;;;;;5051194;28;20510;-70
2023/12/29 11:33:05;;;;;;;100.72;65.38;;;;;;;;;;5042970;28;20122;-72
2023/12/29 11:35:33;;;;;;;96.32;64.28;;;;;;;;;;5051888;28;20025;-71
2023/12/29 11:38:17;;;;;;;97.13;62.78;;;;;;;;;;5066250;28;20111;-70
2023/12/29 11:41:02;;;;;;;95.50;62.53;;;;;;;;;;5054139;28;20047;-70
2023/12/29 11:43:28;;;;;;;91.15;58.38;;;;;;;;;;5052092;28;20033;-69
2023/12/29 11:45:53;;;;;;;89.50;57.65;;;;;;;;;;5052536;28;20041;-70
2023/12/29 11:48:37;;;;;;;92.88;58.40;;;;;;;;;;5047755;28;20041;-70
2023/12/29 11:51:12;;;;;;;89.80;57.72;;;;;;;;;;5051220;28;20029;-70
2023/12/29 11:53:38;;;;;;;92.57;59.33;;;;;;;;;;5048260;28;20832;-71
2023/12/29 11:56:03;;;;;;;88.38;57.58;;;;;;;;;;5047029;28;20025;-71
2023/12/29 11:58:28;;;;;;;88.35;57.40;;;;;;;;;;5054096;28;20041;-71
2023/12/29 12:00:54;;;;;;;59.63;42.72;;;;;;;;;;5053245;28;20435;-71
2023/12/29 12:03:23;;;;;;;69.93;47.40;;;;;;;;;;5041588;28;20049;-71
2023/12/29 12:05:49;;;;;;;76.72;50.67;;;;;;;;;;5049443;28;20057;-70
2023/12/29 12:08:43;;;;;;;73.53;49.13;;;;;;;;;;5049546;28;20051;-71
2023/12/29 12:11:28;;;;;;;80.47;50.70;;;;;;;;;;5025215;28;20037;-70
2023/12/29 12:13:53;;;;;;;75.68;49.40;;;;;;;;;;5051710;28;20114;-69
2023/12/29 12:16:38;;;;;;;74.75;47.63;;;;;;;;;;5055216;28;20057;-70
2023/12/29 12:19:04;;;;;;;72.28;46.63;;;;;;;;;;5049127;28;20029;-70
2023/12/29 12:21:30;;;;;;;69.07;45.65;;;;;;;;;;5038941;28;20024;-70
2023/12/29 12:23:55;;;;;;;69.15;46.28;;;;;;;;;;5055720;28;20023;-70
2023/12/29 12:26:20;;;;;;;69.53;46.45;;;;;;;;;;5050020;28;20104;-70
2023/12/29 12:28:46;;;;;;;66.20;44.83;;;;;;;;;;5048081;28;20021;-69
2023/12/29 12:31:12;;;;;;;69.22;43.83;;;;;;;;;;5054809;28;20021;-70
2023/12/29 12:33:38;;;;;;;66.25;44.85;;;;;;;;;;5064017;28;20056;-70
2023/12/29 12:36:03;;;;;;;65.15;43.25;;;;;;;;;;5057356;28;20024;-71
2023/12/29 12:38:30;;;;;;;64.22;42.83;;;;;;;;;;5050348;28;20534;-70
2023/12/29 12:40:56;;;;;;;68.57;44.08;;;;;;;;;;5052712;28;20134;-70
2023/12/29 12:43:24;;;;;;;63.17;41.83;;;;;;;;;;5044100;28;20035;-71
2023/12/29 12:45:58;;;;;;;62.30;43.08;;;;;;;;;;5050894;28;20500;-75
2023/12/29 12:48:27;;;;;;;62.78;41.60;;;;;;;;;;5039205;28;20052;-72
2023/12/29 12:50:54;;;;;;;64.43;42.03;;;;;;;;;;5044443;28;20048;-69
2023/12/29 12:53:20;;;;;;;65.40;42.33;;;;;;;;;;5041978;28;20054;-69
2023/12/29 12:55:50;;;;;;;60.53;42.22;;;;;;;;;;5025833;28;20037;-69
2023/12/29 12:58:15;;;;;;;63.50;41.28;;;;;;;;;;5039556;28;20053;-70
2023/12/29 13:00:41;;;;;;;60.90;41.05;;;;;;;;;;5040315;28;20049;-69
2023/12/29 13:03:06;;;;;;;61.28;41.90;;;;;;;;;;5036979;28;20041;-69
2023/12/29 13:05:33;;;;;;;60.00;40.88;;;;;;;;;;5066349;28;20902;-69
2023/12/29 13:07:58;;;;;;;61.45;40.08;;;;;;;;;;5061691;28;20514;-69
2023/12/29 13:10:23;;;;;;;55.58;38.88;;;;;;;;;;5034851;28;20124;-71
2023/12/29 13:12:52;;;;;;;58.60;39.50;;;;;;;;;;5023076;28;20048;-70
2023/12/29 13:15:17;;;;;;;54.10;38.53;;;;;;;;;;5039384;28;20118;-69
2023/12/29 13:17:49;;;;;;;55.03;38.53;;;;;;;;;;5047213;28;20108;-69
2023/12/29 13:20:15;;;;;;;54.88;38.47;;;;;;;;;;5041025;28;20045;-69
2023/12/29 13:22:40;;;;;;;55.58;38.65;;;;;;;;;;5038562;28;20207;-69
2023/12/29 13:25:07;;;;;;;54.20;37.40;;;;;;;;;;5015776;28;20120;-69
2023/12/29 13:27:32;;;;;;;54.67;37.75;;;;;;;;;;5035880;28;20028;-69
2023/12/29 13:29:57;;;;;;;52.00;36.67;;;;;;;;;;5043643;28;20062;-69
2023/12/29 13:32:28;;;;;;;53.70;37.00;;;;;;;;;;5045472;28;20033;-69
2023/12/29 13:35:17;;;;;;;52.30;36.40;;;;;;;;;;5039487;28;20430;-69
2023/12/29 13:37:50;;;;;;;51.35;35.97;;;;;;;;;;5040420;28;20041;-69
2023/12/29 13:40:34;;;;;;;49.50;35.20;;;;;;;;;;5047496;28;20060;-69
2023/12/29 13:43:01;;;;;;;48.25;34.05;;;;;;;;;;5048272;28;20063;-69
2023/12/29 13:45:26;;;;;;;51.38;36.08;;;;;;;;;;5047478;28;20033;-69
2023/12/29 13:47:52;;;;;;;49.45;34.42;;;;;;;;;;5040783;28;20035;-68
2023/12/29 13:50:17;;;;;;;49.45;34.92;;;;;;;;;;5039125;28;20067;-69
2023/12/29 13:52:43;;;;;;;36.63;24.40;;;;;;;;;;5042547;28;20049;-73
2023/12/29 13:55:08;;;;;;;31.10;20.70;;;;;;;;;;5045749;28;20067;-73
2023/12/29 13:57:34;;;;;;;23.92;15.02;;;;;;;;;;5047241;28;20484;-73
2023/12/29 14:00:15;;;;;;;20.95;12.57;;;;;;;;;;5060861;28;20520;-73
2023/12/29 14:02:41;;;;;;;16.77;10.45;;;;;;;;;;5046627;28;20037;-73
2023/12/29 14:05:31;;;;;;;14.40;8.25;;;;;;;;;;5049258;28;20032;-72
2023/12/29 14:08:00;;;;;;;13.45;8.43;;;;;;;;;;5008001;28;21400;-73
2023/12/29 14:10:34;;;;;;;13.30;7.35;;;;;;;;;;5052821;28;20031;-72
2023/12/29 14:13:06;;;;;;;12.15;7.18;;;;;;;;;;5046619;28;20602;-72
2023/12/29 14:15:37;;;;;;;12.77;7.70;;;;;;;;;;5045639;28;20094;-72
2023/12/29 14:18:23;;;;;;;13.48;6.82;;;;;;;;;;5037183;28;20136;-73